Time,TemperatureF,DewpointF,PressureIn,WindDirection,WindDirectionDegrees,WindSpeedMPH,WindSpeedGustMPH,Humidity,HourlyPrecipIn,Conditions,Clouds,dailyrainin,SoftwareType,DateUTC
2013-12-26 00:12:00,32.5,26.0,30.26,WSW,239,2.0,5.0,77,0.00,,,0.00,weatherlink.com 1.10,2013-12-26 05:12:00,
2013-12-26 00:27:00,32.6,26.0,30.26,SSW,213,1.0,6.0,77,0.00,,,0.00,weatherlink.com 1.10,2013-12-26 05:27:00,
2013-12-26 00:42:00,32.7,26.0,30.25,SW,236,3.0,8.0,77,0.00,,,0.00,weatherlink.com 1.10,2013-12-26 05:42:00,
2013-12-26 00:57:00,32.8,26.0,30.25,SW,221,2.0,6.0,77,0.00,,,0.00,weatherlink.com 1.10,2013-12-26 05:57:00,
2013-12-26 01:12:00,32.9,26.0,30.25,WSW,245,5.0,6.0,77,0.00,,,0.00,weatherlink.com 1.10,2013-12-26 06:12:00,
2013-12-26 01:27:00,33.0,27.0,30.25,WSW,245,6.0,8.0,78,0.00,,,0.00,weatherlink.com 1.10,2013-12-26 06:27:00,
2013-12-26 01:42:00,33.2,27.0,30.26,WSW,240,6.0,12.0,78,0.00,,,0.00,weatherlink.com 1.10,2013-12-26 06:42:00,
2013-12-26 01:57:00,33.2,27.0,30.26,West,274,6.0,9.0,79,0.00,,,0.00,weatherlink.com 1.10,2013-12-26 06:57:00,
2013-12-26 02:12:00,32.9,27.0,30.26,SW,232,8.0,15.0,80,0.00,,,0.00,weatherlink.com 1.10,2013-12-26 07:12:00,
2013-12-26 02:27:00,32.8,28.0,30.26,WSW,240,4.0,10.0,81,0.00,,,0.00,weatherlink.com 1.10,2013-12-26 07:27:00,
2013-12-26 02:42:00,32.7,28.0,30.27,WSW,253,5.0,12.0,81,0.00,,,0.00,weatherlink.com 1.10,2013-12-26 07:42:00,
2013-12-26 02:57:00,32.7,28.0,30.28,WSW,253,2.0,9.0,82,0.00,,,0.00,weatherlink.com 1.10,2013-12-26 07:57:00,
2013-12-26 03:12:00,32.7,28.0,30.28,WSW,242,6.0,9.0,82,0.00,,,0.00,weatherlink.com 1.10,2013-12-26 08:12:00,
2013-12-26 03:27:00,32.8,28.0,30.28,West,264,2.0,12.0,81,0.00,,,0.00,weatherlink.com 1.10,2013-12-26 08:27:00,
2013-12-26 03:42:00,33.0,27.0,30.29,WSW,249,0.0,11.0,80,0.00,,,0.00,weatherlink.com 1.10,2013-12-26 08:42:00,
2013-12-26 03:57:00,33.0,27.0,30.29,West,269,1.0,11.0,80,0.00,,,0.00,weatherlink.com 1.10,2013-12-26 08:57:00,
2013-12-26 04:12:00,32.7,28.0,30.29,West,261,1.0,6.0,81,0.00,,,0.00,weatherlink.com 1.10,2013-12-26 09:12:00,
2013-12-26 04:27:00,32.1,27.0,30.30,WSW,256,2.0,5.0,81,0.00,,,0.00,weatherlink.com 1.10,2013-12-26 09:27:00,
2013-12-26 04:42:00,31.7,27.0,30.30,West,275,0.0,5.0,82,0.00,,,0.00,weatherlink.com 1.10,2013-12-26 09:42:00,
2013-12-26 04:57:00,31.2,27.0,30.30,WSW,252,0.0,5.0,83,0.00,,,0.00,weatherlink.com 1.10,2013-12-26 09:57:00,
2013-12-26 05:12:00,30.6,26.0,30.30,WSW,258,0.0,5.0,84,0.00,,,0.00,weatherlink.com 1.10,2013-12-26 10:12:00,
2013-12-26 05:27:00,30.0,26.0,30.31,WSW,258,1.0,2.0,85,0.00,,,0.00,weatherlink.com 1.10,2013-12-26 10:27:00,
2013-12-26 05:42:00,29.4,26.0,30.31,WSW,244,0.0,4.0,86,0.00,,,0.00,weatherlink.com 1.10,2013-12-26 10:42:00,
2013-12-26 05:57:00,29.4,26.0,30.32,WSW,238,5.0,7.0,88,0.00,,,0.00,weatherlink.com 1.10,2013-12-26 10:57:00,
2013-12-26 06:12:00,30.6,27.0,30.33,West,264,3.0,6.0,87,0.00,,,0.00,weatherlink.com 1.10,2013-12-26 11:12:00,
2013-12-26 06:27:00,31.1,27.0,30.33,SW,229,2.0,5.0,86,0.00,,,0.00,weatherlink.com 1.10,2013-12-26 11:27:00,
2013-12-26 06:42:00,31.2,27.0,30.34,WSW,242,1.0,7.0,85,0.00,,,0.00,weatherlink.com 1.10,2013-12-26 11:42:00,
2013-12-26 06:58:00,31.0,27.0,30.34,WSW,240,1.0,6.0,85,0.00,,,0.00,weatherlink.com 1.10,2013-12-26 11:58:00,
2013-12-26 07:13:00,31.0,27.0,30.34,WSW,257,0.0,6.0,85,0.00,,,0.00,weatherlink.com 1.10,2013-12-26 12:13:00,
2013-12-26 07:28:00,30.8,27.0,30.34,WSW,252,0.0,2.0,85,0.00,,,0.00,weatherlink.com 1.10,2013-12-26 12:28:00,
2013-12-26 07:43:00,30.4,27.0,30.35,West,268,0.0,3.0,86,0.00,,,0.00,weatherlink.com 1.10,2013-12-26 12:43:00,
2013-12-26 07:58:00,29.9,26.0,30.35,West,268,0.0,4.0,86,0.00,,,0.00,weatherlink.com 1.10,2013-12-26 12:58:00,
2013-12-26 08:13:00,29.1,25.0,30.36,West,268,0.0,0.0,86,0.00,,,0.00,weatherlink.com 1.10,2013-12-26 13:13:00,
2013-12-26 08:28:00,28.2,25.0,30.37,West,268,0.0,0.0,87,0.00,,,0.00,weatherlink.com 1.10,2013-12-26 13:28:00,
2013-12-26 08:43:00,27.7,25.0,30.38,West,268,0.0,0.0,89,0.00,,,0.00,weatherlink.com 1.10,2013-12-26 13:43:00,
2013-12-26 08:58:00,27.7,25.0,30.38,West,268,0.0,0.0,90,0.00,,,0.00,weatherlink.com 1.10,2013-12-26 13:58:00,
2013-12-26 09:13:00,28.3,26.0,30.39,West,265,0.0,3.0,91,0.00,,,0.00,weatherlink.com 1.10,2013-12-26 14:13:00,
2013-12-26 09:28:00,30.1,28.0,30.39,South,181,5.0,5.0,90,0.00,,,0.00,weatherlink.com 1.10,2013-12-26 14:28:00,
2013-12-26 09:43:00,31.3,28.0,30.39,SW,234,1.0,6.0,88,0.00,,,0.00,weatherlink.com 1.10,2013-12-26 14:43:00,
2013-12-26 09:58:00,31.8,28.0,30.40,SW,234,1.0,6.0,87,0.00,,,0.00,weatherlink.com 1.10,2013-12-26 14:58:00,
2013-12-26 10:13:00,32.3,29.0,30.40,SSW,199,1.0,6.0,87,0.00,,,0.00,weatherlink.com 1.10,2013-12-26 15:13:00,
2013-12-26 10:28:00,33.3,29.0,30.40,SSW,194,3.0,6.0,85,0.00,,,0.00,weatherlink.com 1.10,2013-12-26 15:28:00,
2013-12-26 10:43:00,33.6,29.0,30.40,SW,234,3.0,6.0,83,0.00,,,0.00,weatherlink.com 1.10,2013-12-26 15:43:00,
2013-12-26 10:58:00,34.2,30.0,30.41,SW,219,4.0,5.0,83,0.00,,,0.00,weatherlink.com 1.10,2013-12-26 15:58:00,
2013-12-26 11:13:00,35.5,30.0,30.41,SW,230,3.0,6.0,79,0.00,,,0.00,weatherlink.com 1.10,2013-12-26 16:13:00,
2013-12-26 11:28:00,36.1,30.0,30.40,South,184,4.0,6.0,77,0.00,,,0.00,weatherlink.com 1.10,2013-12-26 16:28:00,
2013-12-26 11:43:00,37.0,29.0,30.40,SW,218,3.0,6.0,73,0.01,,,0.01,weatherlink.com 1.10,2013-12-26 16:43:00,
2013-12-26 11:58:00,37.4,29.0,30.40,SSW,197,4.0,9.0,71,0.01,,,0.01,weatherlink.com 1.10,2013-12-26 16:58:00,
2013-12-26 12:13:00,38.1,29.0,30.39,West,259,3.0,7.0,69,0.01,,,0.01,weatherlink.com 1.10,2013-12-26 17:13:00,
2013-12-26 12:28:00,38.6,29.0,30.39,WSW,247,1.0,7.0,69,0.01,,,0.01,weatherlink.com 1.10,2013-12-26 17:28:00,
2013-12-26 12:43:00,39.7,29.0,30.38,South,190,2.0,7.0,66,0.00,,,0.01,weatherlink.com 1.10,2013-12-26 17:43:00,
2013-12-26 12:58:00,40.0,29.0,30.37,SSW,204,3.0,8.0,64,0.00,,,0.01,weatherlink.com 1.10,2013-12-26 17:58:00,
2013-12-26 13:13:00,40.6,28.0,30.38,South,186,3.0,7.0,61,0.00,,,0.01,weatherlink.com 1.10,2013-12-26 18:13:00,
2013-12-26 13:28:00,40.7,28.0,30.37,SSW,213,3.0,7.0,61,0.00,,,0.01,weatherlink.com 1.10,2013-12-26 18:28:00,
2013-12-26 13:43:00,41.2,28.0,30.37,WSW,258,5.0,9.0,59,0.00,,,0.01,weatherlink.com 1.10,2013-12-26 18:43:00,
2013-12-26 13:58:00,41.6,28.0,30.37,WSW,247,4.0,8.0,58,0.00,,,0.01,weatherlink.com 1.10,2013-12-26 18:58:00,
2013-12-26 14:13:00,42.7,28.0,30.36,ENE,76,0.0,8.0,57,0.00,,,0.01,weatherlink.com 1.10,2013-12-26 19:13:00,
2013-12-26 14:29:00,43.0,27.0,30.36,SSW,207,6.0,6.0,53,0.00,,,0.01,weatherlink.com 1.10,2013-12-26 19:29:00,
2013-12-26 14:44:00,42.5,26.0,30.36,SW,232,4.0,10.0,53,0.00,,,0.01,weatherlink.com 1.10,2013-12-26 19:44:00,
2013-12-26 14:59:00,42.5,26.0,30.36,WSW,250,3.0,7.0,52,0.00,,,0.01,weatherlink.com 1.10,2013-12-26 19:59:00,
2013-12-26 15:14:00,41.8,27.0,30.36,SSW,213,0.0,7.0,55,0.00,,,0.01,weatherlink.com 1.10,2013-12-26 20:14:00,
2013-12-26 15:29:00,41.6,27.0,30.35,SSW,193,3.0,7.0,56,0.00,,,0.01,weatherlink.com 1.10,2013-12-26 20:29:00,
2013-12-26 15:44:00,41.3,26.0,30.35,South,183,5.0,8.0,56,0.00,,,0.01,weatherlink.com 1.10,2013-12-26 20:44:00,
2013-12-26 15:59:00,41.1,26.0,30.36,SSW,202,3.0,7.0,55,0.00,,,0.01,weatherlink.com 1.10,2013-12-26 20:59:00,
2013-12-26 16:14:00,41.1,26.0,30.36,SSW,213,5.0,7.0,55,0.00,,,0.01,weatherlink.com 1.10,2013-12-26 21:14:00,
2013-12-26 16:29:00,41.5,26.0,30.36,SW,233,1.0,6.0,55,0.00,,,0.01,weatherlink.com 1.10,2013-12-26 21:29:00,
2013-12-26 16:44:00,40.7,25.0,30.36,SW,232,5.0,6.0,55,0.00,,,0.01,weatherlink.com 1.10,2013-12-26 21:44:00,
2013-12-26 16:59:00,39.6,27.0,30.37,SW,224,3.0,5.0,60,0.00,,,0.01,weatherlink.com 1.10,2013-12-26 21:59:00,
2013-12-26 17:14:00,38.7,26.0,30.36,South,187,1.0,5.0,61,0.00,,,0.01,weatherlink.com 1.10,2013-12-26 22:14:00,
2013-12-26 17:29:00,37.7,26.0,30.36,South,171,1.0,3.0,63,0.00,,,0.01,weatherlink.com 1.10,2013-12-26 22:29:00,
2013-12-26 17:44:00,36.8,26.0,30.36,South,171,0.0,0.0,65,0.00,,,0.01,weatherlink.com 1.10,2013-12-26 22:44:00,
2013-12-26 17:59:00,35.8,26.0,30.36,South,171,0.0,0.0,67,0.00,,,0.01,weatherlink.com 1.10,2013-12-26 22:59:00,
2013-12-26 18:14:00,34.3,25.0,30.36,South,171,0.0,0.0,70,0.00,,,0.01,weatherlink.com 1.10,2013-12-26 23:14:00,
2013-12-26 18:29:00,32.8,25.0,30.36,South,171,0.0,0.0,73,0.00,,,0.01,weatherlink.com 1.10,2013-12-26 23:29:00,
2013-12-26 18:44:00,31.2,25.0,30.37,South,171,0.0,0.0,77,0.00,,,0.01,weatherlink.com 1.10,2013-12-26 23:44:00,
2013-12-26 18:59:00,30.1,24.0,30.36,South,171,0.0,0.0,79,0.00,,,0.01,weatherlink.com 1.10,2013-12-26 23:59:00,
2013-12-26 19:14:00,29.2,24.0,30.36,South,171,0.0,0.0,81,0.00,,,0.01,weatherlink.com 1.10,2013-12-27 00:14:00,
2013-12-26 19:29:00,28.9,24.0,30.36,South,171,0.0,0.0,83,0.00,,,0.01,weatherlink.com 1.10,2013-12-27 00:29:00,
2013-12-26 19:44:00,28.4,24.0,30.36,South,171,0.0,0.0,83,0.00,,,0.01,weatherlink.com 1.10,2013-12-27 00:44:00,
2013-12-26 19:59:00,28.0,24.0,30.36,South,171,0.0,0.0,84,0.00,,,0.01,weatherlink.com 1.10,2013-12-27 00:59:00,
2013-12-26 20:14:00,27.7,24.0,30.36,South,171,0.0,0.0,85,0.00,,,0.01,weatherlink.com 1.10,2013-12-27 01:14:00,
2013-12-26 20:29:00,27.6,24.0,30.36,South,171,0.0,1.0,86,0.00,,,0.01,weatherlink.com 1.10,2013-12-27 01:29:00,
2013-12-26 20:44:00,27.4,24.0,30.36,South,171,0.0,0.0,86,0.00,,,0.01,weatherlink.com 1.10,2013-12-27 01:44:00,
2013-12-26 20:59:00,27.1,24.0,30.36,South,171,0.0,0.0,87,0.00,,,0.01,weatherlink.com 1.10,2013-12-27 01:59:00,
2013-12-26 21:14:00,26.9,24.0,30.36,South,171,0.0,1.0,87,0.00,,,0.01,weatherlink.com 1.10,2013-12-27 02:14:00,
2013-12-26 21:29:00,26.5,23.0,30.36,South,171,0.0,0.0,87,0.00,,,0.01,weatherlink.com 1.10,2013-12-27 02:29:00,
2013-12-26 21:44:00,26.8,24.0,30.36,South,171,0.0,2.0,88,0.00,,,0.01,weatherlink.com 1.10,2013-12-27 02:44:00,
2013-12-26 21:59:00,28.3,25.0,30.35,South,188,0.0,5.0,88,0.00,,,0.01,weatherlink.com 1.10,2013-12-27 02:59:00,
2013-12-26 22:14:00,30.4,26.0,30.35,SSW,192,1.0,3.0,83,0.00,,,0.01,weatherlink.com 1.10,2013-12-27 03:14:00,
2013-12-26 22:29:00,31.6,26.0,30.35,South,186,2.0,6.0,79,0.00,,,0.01,weatherlink.com 1.10,2013-12-27 03:29:00,
2013-12-26 22:44:00,31.9,25.0,30.36,SSW,192,0.0,3.0,77,0.00,,,0.01,weatherlink.com 1.10,2013-12-27 03:44:00,
2013-12-26 22:59:00,30.9,25.0,30.36,SSW,192,0.0,5.0,78,0.00,,,0.01,weatherlink.com 1.10,2013-12-27 03:59:00,
2013-12-26 23:14:00,30.0,25.0,30.37,SSW,192,0.0,2.0,80,0.00,,,0.01,weatherlink.com 1.10,2013-12-27 04:14:00,
2013-12-26 23:29:00,28.9,24.0,30.36,SSW,192,0.0,0.0,82,0.00,,,0.01,weatherlink.com 1.10,2013-12-27 04:29:00,
2013-12-26 23:44:00,27.9,24.0,30.37,SSW,192,0.0,0.0,84,0.00,,,0.01,weatherlink.com 1.10,2013-12-27 04:44:00,
2013-12-26 23:59:00,27.1,23.0,30.37,SSW,192,0.0,0.0,85,0.00,,,0.01,weatherlink.com 1.10,2013-12-27 04:59:00,